NCAR-RAP Real-Time Weather Data

Output produced by METARs form (12 August 2020  17:49 UTC)
found at http://weather.rap.ucar.edu/surface/
 
KILM 121653Z 13008KT 100V160 10SM FEW025 SCT032 SCT047 30/23 A3001 RMK AO2 SLP162 T03000228
KILM 121553Z 07008KT 10SM SCT028 BKN038 30/23 A3002 RMK AO2 SLP167 T03000228
KILM 121453Z 11008KT 10SM SCT028 29/23 A3002 RMK AO2 SLP166 60000 T02940228 50000
KILM 121405Z 11010KT 10SM SCT019 SCT034 SCT045 29/23 A3003 RMK AO2 T02890233
KILM 121353Z 08006KT 10SM BKN019 BKN027 BKN045 29/23 A3003 RMK AO2 RAE1255 SLP167 P0000 T02890233
KILM 121343Z 08006KT 10SM BKN019 BKN043 28/24 A3002 RMK AO2 RAE1255 P0000 T02830239
KILM 121253Z 09004KT 10SM -RA FEW028 FEW060 SCT100 27/24 A3003 RMK AO2 RAB46 SLP167 P0000 T02670239
KILM 121153Z 00000KT 10SM CLR 24/23 A3002 RMK AO2 SLP166 T02440233 10256 20233 51018
KILM 121053Z 03004KT 7SM CLR 23/23 A3002 RMK AO2 SLP164 T02330228
KILM 120953Z 00000KT 7SM CLR 24/23 A2999 RMK AO2 SLP156 T02390228
KILM 120853Z 00000KT 8SM CLR 24/23 A2997 RMK AO2 SLP148 T02390228 56007
KILM 120753Z 00000KT 10SM CLR 24/23 A2997 RMK AO2 SLP149 T02440233
KILM 120653Z 36003KT 10SM CLR 25/23 A2998 RMK AO2 SLP152 T02500233
KILM 120553Z 00000KT 10SM CLR 26/23 A2999 RMK AO2 SLP156 T02560233 10283 20250 58003
KILM 120453Z 19004KT 10SM CLR 26/23 A3001 RMK AO2 SLP161 T02610233 403220244
KILM 120353Z 18004KT 10SM CLR 27/23 A3000 RMK AO2 SLP159 T02670233
KILM 120253Z 18004KT 10SM CLR 27/23 A3000 RMK AO2 SLP158 LAST T02670233 51013
KILM 120153Z 16004KT 10SM CLR 28/24 A3000 RMK AO2 SLP158 T02780239
KILM 120053Z 17004KT 10SM CLR 27/23 A2998 RMK AO2 SLP152 T02720233
KILM 112353Z 14007KT 10SM CLR 28/24 A2996 RMK AO2 SLP146 T02830239 10322 20283 53001
KILM 112253Z 14006KT 10SM CLR 29/24 A2994 RMK AO2 SLP140 T02940239
KILM 112153Z 14008KT 10SM FEW030 31/23 A2995 RMK AO2 SLP141 T03060228
KILM 112053Z 18010KT 10SM CLR 32/21 A2996 RMK AO2 SLP145 T03220211 56008
KILM 111953Z 14004KT 10SM BKN048 31/22 A2996 RMK AO2 SLP146 T03110222
KILM 111853Z 07008KT 10SM SCT050 30/23 A2998 RMK AO2 SLP150 T03000228
KILM 111843Z 05006KT 10SM VCTS CLR 31/23 A2998 RMK AO2 T03060233
KILM 111753Z 25008KT 10SM FEW041 SCT050 BKN090 32/21 A2998 RMK AO2 SLP153 T03220211 10322 20272 56009
KILM 111653Z 24006KT 10SM FEW033 32/22 A2999 RMK AO2 SLP154 T03220217
KILM 111625Z 18007KT 10SM FEW022 SCT031 31/23 A2999 RMK AO2 LTG DSNT NE T03110228
KILM 111606Z VRB03KT 10SM SCT022 BKN028 31/24 A2999 RMK AO2 LTG DSNT N AND NE T03060239
KILM 111553Z 19004KT 10SM SCT022 31/24 A3000 RMK AO2 LTG DSNT N AND NE SLP160 T03060244
KILM 111453Z 16003KT 10SM FEW021 28/25 A3001 RMK AO2 LTG DSNT NE SLP162 T02830250 53003
KILM 111438Z 11004KT 10SM VCTS FEW017 SCT023 28/25 A3002 RMK AO2 LTG DSNT NE T02830250
KILM 111416Z 18005KT 10SM VCTS BKN017 BKN024 28/25 A3000 RMK AO2 T02830250
KILM 111353Z 18003KT 10SM CLR 28/24 A3000 RMK AO2 SLP158 T02830244
KILM 111253Z 25003KT 10SM CLR 27/25 A3000 RMK AO2 SLP159 T02720250
KILM 111237Z 27003KT 10SM FEW013 FEW020 28/25 A2999 RMK AO2 T02780250
KILM 111215Z 25003KT 10SM FEW010 SCT017 BKN028 27/24 A3000 RMK AO2 T02720244
KILM 111153Z 00000KT 10SM CLR 27/24 A2999 RMK AO2 SLP156 T02720244 10272 20244 51011
KILM 111053Z 00000KT 6SM BR CLR 24/23 A2998 RMK AO2 SLP152 T02440233
KILM 110953Z 00000KT 8SM CLR 25/23 A2997 RMK AO2 SLP149 T02500233
KILM 110853Z AUTO 00000KT 7SM CLR 25/24 A2996 RMK AO2 SLP144 T02500239 56017
KILM 110753Z AUTO 00000KT 10SM CLR 26/23 A2997 RMK AO2 SLP149 T02610233
KILM 110653Z AUTO 00000KT 10SM CLR 26/24 A2999 RMK AO2 SLP155 T02610244
KILM 110553Z AUTO 19003KT 10SM CLR 27/24 A3001 RMK AO2 SLP162 T02670244 10289 20256 56003
KILM 110453Z AUTO 21003KT 10SM CLR 26/24 A3001 RMK AO2 SLP162 T02610239 403390239
KILM 110353Z AUTO 00000KT 10SM CLR 27/24 A3001 RMK AO2 SLP162 T02670244
KILM 110315Z AUTO 25003KT 10SM FEW020 27/24 A3002 RMK AO2 T02720239
KILM 110253Z AUTO 31004KT 10SM BKN020 27/24 A3002 RMK AO2 SLP164 LAST T02720244 53002
KILM 110245Z AUTO 30005KT 10SM BKN020 BKN027 28/24 A3002 RMK AO2 LAST T02780239
KILM 110153Z 18005KT 10SM CLR 28/24 A2999 RMK AO2 SLP156 T02780239
KILM 110053Z 19005KT 10SM FEW022 28/24 A3000 RMK AO2 SLP158 T02830239
KILM 102353Z 20007KT 10SM FEW026 29/24 A3001 RMK AO2 SLP162 T02890239 10339 20289 52005
KILM 102253Z AUTO 20007KT 10SM SCT029 29/23 A3001 RMK AO2 SLP163 T02940233
KILM 102153Z AUTO 20008KT 10SM SCT035 32/22 A2999 RMK AO2 SLP157 T03170222
KILM 102053Z AUTO 21010KT 10SM FEW038 32/22 A3000 RMK AO2 SLP157 T03220222 56020
KILM 101953Z AUTO 18010KT 10SM FEW039 33/22 A3001 RMK AO2 SLP161 T03280222
KILM 101853Z 20011G18KT 10SM FEW043 FEW055 SCT070 33/22 A3003 RMK AO2 SLP167 T03330222
KILM 101753Z 21008KT 10SM SCT042 SCT050 33/22 A3006 RMK AO2 SLP177 T03330222 10333 20261 58014